메인 페이지
METAR-TAF:

METAR-TAF

공항 :

충칭 장베이 국제공항

충칭, 중국

위도: 29-31N, 경도: 106-29E, 고도: 351m

현재 날씨관측

예보는 53분 전, 20:00시(UTC)에 발표되었습니다.
8kt
온도 23°C
습도 94%
기압 1003 hPa
시정 10km 이상
고도 3300ft 상공 구름 조금, 적란운.
고도 5000ft 상공 흐림
뇌우, 약한비

METAR: ZUCK 202000Z 18004MPS 9999 -TSRA FEW033CB OVC050 23/22 Q1003 RERA BECMG TL2100 NSW

시각: 04:53 (20:53 UTC)

예보

예보는 5 시간 45분 전, 15:08시(UTC)에 발표되었습니다.
예보 대상 시간: 20일 18시부터 21일 18시까지 (UTC)
남남동6kt
시정: 6000m
고도 4000ft 상공 구름 보통
전환 중
21일 14시부터 21일 15시까지 (UTC)
시정: 4000m
고도 1500ft 상공 구름 조금
고도 4000ft 상공 구름 보통
약한소나기, 박무
일시적
21일 15시부터 21일 18시까지 (UTC)
고도 1500ft 상공 구름 조금
고도 4000ft 상공 구름 보통
고도 4000ft 상공 구름 조금, 적란운.
뇌우, 비

TAF: ZUCK 201508Z 2018/2118 15003MPS 6000 SCT040 TX36/2107Z TN27/2021Z BECMG 2114/2115 4000 -SHRA BR FEW015 SCT040 TEMPO 2115/2118 TSRA FEW015 SCT040 FEW040CB

4,000개 이상의 공항 관측 자료 및 예보 (METAR 및 TAF 보고).

지도상에서 검색 가능한 기상관측소가 노란 점과 빨간 점으로 표시되어 있습니다.

기상관측소 명을 보려면 표시 위로 마우스를 이동하세요.

날씨 관측과 예보를 보려면 클릭하세요.

지도 변경 : 확대하려면 엑스 표시가 있는 녹색 버튼, 축소하려면 빼기 표시가 있는 녹색 버튼, 다음 페이지의 지도를 보려면 녹색 화살표를 클릭하세요.


METAR-TAF: